createdAt,value
2019-02-23T00:01:26.076Z,2.00
2019-02-23T00:03:53.888Z,2.10
2019-02-23T00:06:29.350Z,2.10
2019-02-23T00:08:51.407Z,2.00
2019-02-23T00:11:19.216Z,2.10
2019-02-23T00:13:47.083Z,2.00
2019-02-23T00:16:14.908Z,2.00
2019-02-23T00:18:42.733Z,1.90
2019-02-23T00:21:10.647Z,2.00
2019-02-23T00:23:38.477Z,2.00
2019-02-23T00:26:06.311Z,2.10
2019-02-23T00:28:34.222Z,2.10
2019-02-23T00:31:02.017Z,2.00
2019-02-23T00:33:29.847Z,2.10
2019-02-23T00:35:57.748Z,2.20
2019-02-23T00:38:25.564Z,2.20
2019-02-23T00:40:53.431Z,2.10
2019-02-23T00:43:21.315Z,2.10
2019-02-23T00:45:49.125Z,2.10
2019-02-23T00:48:16.927Z,2.10
2019-02-23T00:50:44.790Z,2.00
2019-02-23T00:53:12.628Z,2.00
2019-02-23T00:55:40.430Z,2.10
2019-02-23T00:58:08.312Z,2.00
2019-02-23T01:00:36.109Z,2.00
2019-02-23T01:03:03.922Z,2.10
2019-02-23T01:05:32.135Z,2.10
2019-02-23T01:07:59.959Z,2.10
2019-02-23T01:10:27.832Z,2.10
2019-02-23T01:12:55.648Z,2.10
2019-02-23T01:15:23.467Z,2.10
2019-02-23T01:17:51.381Z,2.20
2019-02-23T01:20:19.321Z,2.20
2019-02-23T01:22:47.227Z,2.20
2019-02-23T01:25:15.271Z,2.20
2019-02-23T01:27:43.408Z,2.20
2019-02-23T01:30:11.567Z,2.30
2019-02-23T01:32:39.470Z,2.30
2019-02-23T01:35:07.391Z,2.30
2019-02-23T01:37:35.196Z,2.40
2019-02-23T01:40:03.551Z,2.30
2019-02-23T01:42:31.428Z,2.40
2019-02-23T01:44:59.236Z,2.40
2019-02-23T01:47:27.038Z,2.40
2019-02-23T01:49:58.735Z,2.30
2019-02-23T01:52:24.593Z,2.30
2019-02-23T01:54:52.419Z,2.30
2019-02-23T01:57:20.228Z,2.30
2019-02-23T01:59:48.107Z,2.30
2019-02-23T02:02:15.912Z,2.20
2019-02-23T02:04:43.699Z,2.20
2019-02-23T02:07:11.552Z,2.30
2019-02-23T02:09:39.356Z,2.30
2019-02-23T02:12:08.096Z,2.30
2019-02-23T02:14:36.354Z,2.30
2019-02-23T02:17:04.184Z,2.30
2019-02-23T02:19:32.521Z,2.40
2019-02-23T02:22:00.441Z,2.30
2019-02-23T02:24:28.245Z,2.30
2019-02-23T02:26:56.120Z,2.40
2019-02-23T02:29:23.912Z,2.30
2019-02-23T02:31:51.726Z,2.30
2019-02-23T02:34:19.834Z,2.40
2019-02-23T02:36:47.665Z,2.40
2019-02-23T02:39:15.850Z,2.40
2019-02-23T02:41:43.713Z,2.50
2019-02-23T02:44:11.570Z,2.50
2019-02-23T02:46:39.492Z,2.50
2019-02-23T02:49:07.539Z,2.60
2019-02-23T02:51:35.356Z,2.60
2019-02-23T02:54:03.371Z,2.50
2019-02-23T02:56:31.161Z,2.50
2019-02-23T02:58:59.012Z,2.50
2019-02-23T03:01:26.993Z,2.50
2019-02-23T03:03:55.127Z,2.50
2019-02-23T03:06:22.958Z,2.50
2019-02-23T03:08:50.795Z,2.50
2019-02-23T03:11:18.573Z,2.60
2019-02-23T03:13:46.460Z,2.60
2019-02-23T03:16:14.275Z,2.60
2019-02-23T03:18:42.081Z,2.60
2019-02-23T03:21:09.985Z,2.60
2019-02-23T03:23:37.851Z,2.70
2019-02-23T03:26:05.649Z,2.70
2019-02-23T03:28:33.480Z,2.70
2019-02-23T03:31:01.300Z,2.70
2019-02-23T03:33:29.160Z,2.70
2019-02-23T03:35:56.952Z,2.70
2019-02-23T03:38:24.769Z,2.70
2019-02-23T03:40:52.661Z,2.70
2019-02-23T03:43:20.475Z,2.70
2019-02-23T03:45:48.259Z,2.80
2019-02-23T03:48:16.188Z,2.80
2019-02-23T03:50:48.953Z,2.80
2019-02-23T03:53:13.587Z,2.90
2019-02-23T03:55:41.634Z,2.80
2019-02-23T03:58:09.644Z,2.90
2019-02-23T04:00:37.527Z,2.90
2019-02-23T04:03:05.395Z,2.90
2019-02-23T04:05:33.185Z,2.90
2019-02-23T04:08:01.007Z,3.00
2019-02-23T04:10:28.894Z,2.90
2019-02-23T04:12:56.727Z,3.20
2019-02-23T04:15:24.556Z,2.90
2019-02-23T04:17:52.410Z,3.00
2019-02-23T04:20:20.233Z,3.00
2019-02-23T04:22:48.107Z,3.00
2019-02-23T04:25:15.945Z,3.10
2019-02-23T04:27:46.618Z,3.10
2019-02-23T04:30:14.431Z,3.10
2019-02-23T04:32:42.258Z,3.10
2019-02-23T04:35:10.119Z,3.10
2019-02-23T04:37:37.919Z,3.10
2019-02-23T04:40:06.005Z,3.10
2019-02-23T04:42:33.826Z,3.10
2019-02-23T04:45:01.656Z,3.10
2019-02-23T04:47:29.540Z,3.10
2019-02-23T04:49:57.381Z,3.20
2019-02-23T04:52:25.208Z,3.20
2019-02-23T04:54:53.095Z,3.20
2019-02-23T04:57:20.879Z,3.10
2019-02-23T04:59:48.697Z,3.10
2019-02-23T05:02:16.574Z,3.10
2019-02-23T05:04:44.376Z,3.20
2019-02-23T05:07:12.195Z,3.20
2019-02-23T05:09:40.028Z,3.20
2019-02-23T05:12:07.827Z,3.20
2019-02-23T05:14:35.728Z,3.20
2019-02-23T05:17:03.586Z,3.20
2019-02-23T05:19:31.395Z,3.20
2019-02-23T05:21:59.248Z,3.30
2019-02-23T05:24:27.132Z,3.30
2019-02-23T05:26:54.920Z,3.30
2019-02-23T05:29:22.738Z,3.30
2019-02-23T05:31:50.556Z,3.30
2019-02-23T05:34:18.456Z,3.40
2019-02-23T05:36:46.329Z,3.40
2019-02-23T05:39:14.159Z,3.40
2019-02-23T05:41:42.191Z,3.40
2019-02-23T05:44:10.437Z,3.40
2019-02-23T05:46:38.612Z,3.40
2019-02-23T05:49:06.547Z,3.50
2019-02-23T05:51:38.780Z,3.50
2019-02-23T05:54:05.225Z,3.50
2019-02-23T05:56:33.604Z,3.50
2019-02-23T05:59:01.929Z,3.60
2019-02-23T06:01:30.407Z,3.60
2019-02-23T06:03:58.486Z,3.60
2019-02-23T06:06:26.303Z,3.60
2019-02-23T06:08:54.108Z,3.70
2019-02-23T06:11:22.027Z,3.60
2019-02-23T06:13:50.139Z,3.60
2019-02-23T06:16:18.414Z,3.60
2019-02-23T06:18:46.625Z,3.60
2019-02-23T06:21:14.964Z,3.60
2019-02-23T06:23:43.451Z,3.70
2019-02-23T06:26:11.684Z,3.70
2019-02-23T06:28:39.518Z,3.70
2019-02-23T06:31:07.822Z,3.70
2019-02-23T06:33:35.737Z,3.70
2019-02-23T06:36:03.996Z,3.70
2019-02-23T06:38:32.326Z,3.60
2019-02-23T06:41:00.378Z,3.70
2019-02-23T06:43:28.168Z,3.70
2019-02-23T06:45:56.227Z,3.70
2019-02-23T06:48:24.662Z,3.70
2019-02-23T06:50:52.542Z,3.70
2019-02-23T06:53:20.853Z,3.70
2019-02-23T06:55:49.068Z,3.70
2019-02-23T06:58:17.444Z,3.70
2019-02-23T07:00:45.610Z,3.70
2019-02-23T07:03:13.583Z,3.70
2019-02-23T07:05:41.955Z,3.70
2019-02-23T07:08:10.321Z,3.80
2019-02-23T07:10:38.707Z,3.80
2019-02-23T07:13:07.188Z,3.80
2019-02-23T07:15:35.462Z,3.80
2019-02-23T07:18:03.532Z,3.80
2019-02-23T07:20:31.919Z,3.90
2019-02-23T07:22:59.716Z,3.90
2019-02-23T07:25:28.013Z,3.90
2019-02-23T07:27:56.439Z,3.90
2019-02-23T07:30:24.698Z,3.90
2019-02-23T07:32:52.974Z,3.90
2019-02-23T07:35:21.349Z,3.90
2019-02-23T07:37:49.529Z,3.90
2019-02-23T07:40:17.953Z,4.00
2019-02-23T07:42:46.118Z,4.00
2019-02-23T07:45:13.936Z,4.00
2019-02-23T07:47:41.831Z,4.00
2019-02-23T07:50:10.017Z,4.10
2019-02-23T07:52:37.831Z,4.10
2019-02-23T07:55:06.328Z,4.00
2019-02-23T07:57:34.461Z,4.10
2019-02-23T08:00:02.765Z,4.10
2019-02-23T08:02:30.833Z,4.20
2019-02-23T08:04:59.216Z,4.20
2019-02-23T08:07:27.792Z,4.20
2019-02-23T08:09:56.422Z,4.20
2019-02-23T08:12:24.709Z,4.10
2019-02-23T08:14:53.043Z,4.20
2019-02-23T08:17:21.606Z,4.20
2019-02-23T08:19:49.398Z,4.30
2019-02-23T08:22:17.341Z,4.30
2019-02-23T08:24:45.617Z,4.30
2019-02-23T08:27:13.515Z,4.40
2019-02-23T08:29:41.399Z,4.40
2019-02-23T08:32:09.611Z,4.40
2019-02-23T08:34:37.442Z,4.40
2019-02-23T08:37:05.446Z,4.40
2019-02-23T08:39:33.300Z,4.50
2019-02-23T08:42:01.379Z,4.50
2019-02-23T08:44:29.601Z,4.60
2019-02-23T08:46:57.452Z,4.60
2019-02-23T08:49:25.301Z,4.70
2019-02-23T08:51:53.121Z,4.80
2019-02-23T08:54:20.952Z,4.70
2019-02-23T08:56:48.985Z,4.70
2019-02-23T08:59:16.782Z,4.70
2019-02-23T09:01:44.587Z,4.60
2019-02-23T09:04:12.391Z,4.70
2019-02-23T09:06:40.221Z,4.70
2019-02-23T09:09:08.285Z,4.80
2019-02-23T09:11:36.116Z,4.80
2019-02-23T09:14:03.984Z,4.80
2019-02-23T09:16:31.846Z,4.80
2019-02-23T09:18:59.642Z,4.80
2019-02-23T09:21:27.474Z,4.90
2019-02-23T09:23:55.716Z,4.90
2019-02-23T09:26:23.520Z,4.90
2019-02-23T09:28:51.339Z,5.00
2019-02-23T09:31:19.178Z,5.10
2019-02-23T09:33:47.011Z,5.20
2019-02-23T09:36:14.890Z,5.20
2019-02-23T09:38:42.775Z,5.20
2019-02-23T09:41:10.648Z,5.10
2019-02-23T09:43:39.954Z,5.20
2019-02-23T09:46:07.752Z,5.20
2019-02-23T09:48:35.616Z,5.20
2019-02-23T09:51:03.954Z,5.20
2019-02-23T09:53:31.797Z,5.20
2019-02-23T09:55:59.620Z,5.30
2019-02-23T09:58:27.458Z,5.30
2019-02-23T10:00:55.383Z,5.30
2019-02-23T10:03:23.476Z,5.30
2019-02-23T10:05:51.703Z,5.30
2019-02-23T10:08:19.614Z,5.40
2019-02-23T10:10:47.447Z,5.40
2019-02-23T10:13:15.236Z,5.50
2019-02-23T10:15:43.112Z,5.40
2019-02-23T10:18:10.923Z,5.40
2019-02-23T10:20:38.743Z,5.40
2019-02-23T10:23:06.640Z,5.30
2019-02-23T10:25:34.470Z,5.30
2019-02-23T10:28:02.294Z,5.40
2019-02-23T10:30:30.211Z,5.50
2019-02-23T10:32:58.468Z,5.50
2019-02-23T10:35:26.946Z,5.50
2019-02-23T10:37:54.875Z,5.50
2019-02-23T10:40:22.714Z,5.50
2019-02-23T10:42:50.582Z,5.50
2019-02-23T10:45:18.499Z,5.60
2019-02-23T10:47:46.773Z,5.60
2019-02-23T10:50:15.794Z,5.60
2019-02-23T10:52:43.648Z,5.60
2019-02-23T10:55:12.016Z,5.60
2019-02-23T10:57:40.421Z,5.60
2019-02-23T11:00:13.638Z,5.70
2019-02-23T11:02:42.174Z,5.70
2019-02-23T11:05:10.602Z,5.70
2019-02-23T11:07:38.886Z,5.70
2019-02-23T11:10:07.197Z,5.80
2019-02-23T11:12:35.126Z,5.70
2019-02-23T11:15:03.640Z,5.80
2019-02-23T11:17:32.014Z,5.80
2019-02-23T11:20:00.246Z,5.80
2019-02-23T11:22:28.983Z,5.90
2019-02-23T11:24:57.452Z,5.80
2019-02-23T11:27:25.343Z,5.70
2019-02-23T11:29:53.191Z,5.70
2019-02-23T11:32:21.660Z,5.70
2019-02-23T11:34:49.937Z,5.70
2019-02-23T11:37:18.007Z,5.70
2019-02-23T11:39:45.879Z,5.70
2019-02-23T11:42:14.187Z,5.70
2019-02-23T11:44:42.112Z,5.80
2019-02-23T11:47:10.473Z,5.80
2019-02-23T11:49:38.700Z,5.80
2019-02-23T11:52:07.138Z,5.80
2019-02-23T11:54:35.364Z,5.70
2019-02-23T11:57:03.383Z,5.60
2019-02-23T11:59:31.805Z,5.70
2019-02-23T12:01:59.936Z,5.70
2019-02-23T12:04:28.205Z,5.70
2019-02-23T12:06:56.814Z,5.80
2019-02-23T12:09:25.166Z,6.00
2019-02-23T12:11:53.078Z,5.90
2019-02-23T12:14:21.509Z,5.80
2019-02-23T12:16:49.623Z,5.90
2019-02-23T12:19:17.791Z,6.00
2019-02-23T12:21:45.655Z,6.00
2019-02-23T12:24:14.094Z,6.00
2019-02-23T12:26:42.467Z,5.90
2019-02-23T12:29:10.796Z,5.90
2019-02-23T12:31:39.103Z,5.90
2019-02-23T12:34:07.208Z,5.90
2019-02-23T12:36:35.463Z,5.90
2019-02-23T12:39:04.068Z,5.90
2019-02-23T12:41:32.387Z,5.90
2019-02-23T12:44:00.228Z,5.90
2019-02-23T12:46:30.875Z,5.90
2019-02-23T12:48:58.883Z,5.90
2019-02-23T12:51:26.911Z,6.00
2019-02-23T12:53:55.096Z,6.00
2019-02-23T12:56:23.399Z,6.00
2019-02-23T12:58:51.872Z,6.00
2019-02-23T13:01:20.217Z,6.10
2019-02-23T13:03:48.570Z,6.10
2019-02-23T13:06:17.011Z,6.20
2019-02-23T13:09:20.038Z,6.20
2019-02-23T13:12:09.575Z,6.20
2019-02-23T13:15:11.330Z,6.20
2019-02-23T13:18:14.939Z,6.40
2019-02-23T13:21:03.769Z,6.30
2019-02-23T13:24:01.041Z,6.50
2019-02-23T13:27:06.180Z,6.40
2019-02-23T13:30:27.087Z,6.40
2019-02-23T13:33:21.638Z,6.30
2019-02-23T13:36:14.592Z,6.30
2019-02-23T13:39:21.223Z,6.40
2019-02-23T13:42:01.259Z,6.40
2019-02-23T13:45:10.742Z,6.40
2019-02-23T13:48:32.010Z,6.30
2019-02-23T13:51:57.016Z,6.10
2019-02-23T13:55:08.161Z,6.00
2019-02-23T13:58:04.320Z,6.00
2019-02-23T14:00:59.385Z,5.90
2019-02-23T14:04:11.665Z,5.90
2019-02-23T14:07:20.144Z,5.80
2019-02-23T14:10:19.447Z,5.80
2019-02-23T14:13:32.283Z,5.80
2019-02-23T14:16:44.408Z,5.70
2019-02-23T14:19:49.785Z,5.70
2019-02-23T14:22:48.542Z,5.70
2019-02-23T14:26:10.331Z,5.60
2019-02-23T14:28:54.151Z,5.60
2019-02-23T14:31:59.561Z,5.50
2019-02-23T14:35:18.316Z,5.50
2019-02-23T14:38:30.506Z,5.50
2019-02-23T14:41:15.187Z,5.50
2019-02-23T14:43:57.844Z,5.50
2019-02-23T14:47:16.904Z,5.50
2019-02-23T14:50:28.292Z,5.50
2019-02-23T14:53:26.771Z,5.40
2019-02-23T14:56:45.429Z,5.40
2019-02-23T14:59:37.061Z,5.30
2019-02-23T15:03:05.228Z,5.20
2019-02-23T15:06:07.505Z,5.20
2019-02-23T15:08:48.879Z,5.20
2019-02-23T15:11:43.981Z,5.10
2019-02-23T15:14:45.027Z,5.10
2019-02-23T15:17:53.034Z,5.10
2019-02-23T15:20:51.414Z,5.10
2019-02-23T15:24:00.077Z,5.00
2019-02-23T15:27:17.352Z,5.00
2019-02-23T15:30:39.096Z,5.00
2019-02-23T15:33:43.353Z,4.90
2019-02-23T15:36:26.104Z,4.90
2019-02-23T15:39:27.096Z,4.90
2019-02-23T15:42:31.974Z,5.00
2019-02-23T15:45:27.506Z,4.90
2019-02-23T15:48:55.553Z,4.90
2019-02-23T15:51:23.454Z,4.90
2019-02-23T15:53:51.377Z,4.90
2019-02-23T15:56:19.537Z,4.80
2019-02-23T15:58:47.358Z,4.80
2019-02-23T16:01:15.196Z,4.80
2019-02-23T16:03:43.000Z,4.80
2019-02-23T16:06:10.937Z,4.70
2019-02-23T16:08:39.151Z,4.70
2019-02-23T16:11:06.980Z,4.70
2019-02-23T16:13:35.999Z,4.70
2019-02-23T16:16:04.008Z,4.60
2019-02-23T16:18:31.883Z,4.70
2019-02-23T16:20:59.752Z,4.70
2019-02-23T16:23:35.391Z,4.70
2019-02-23T16:25:57.412Z,4.70
2019-02-23T16:28:25.248Z,4.70
2019-02-23T16:30:53.789Z,4.60
2019-02-23T16:33:21.782Z,4.60
2019-02-23T16:35:49.653Z,4.60
2019-02-23T16:38:18.246Z,4.70
2019-02-23T16:40:46.151Z,4.60
2019-02-23T16:43:13.998Z,4.60
2019-02-23T16:45:41.818Z,4.70
2019-02-23T16:48:09.696Z,4.60
2019-02-23T16:50:37.656Z,4.60
2019-02-23T16:53:05.481Z,4.60
2019-02-23T16:55:33.319Z,4.60
2019-02-23T16:58:01.711Z,4.60
2019-02-23T17:00:48.938Z,4.70
2019-02-23T17:03:17.921Z,4.50
2019-02-23T17:05:45.942Z,4.60
2019-02-23T17:08:13.838Z,4.60
2019-02-23T17:10:41.869Z,4.60
2019-02-23T17:13:09.793Z,4.60
2019-02-23T17:15:37.663Z,4.70
2019-02-23T17:27:54.807Z,4.60
2019-02-23T17:30:22.973Z,4.60
2019-02-23T17:32:51.188Z,4.60
2019-02-23T17:35:19.569Z,4.70
2019-02-23T17:37:47.945Z,4.60
2019-02-23T17:40:16.420Z,4.60
2019-02-23T17:42:44.293Z,4.60
2019-02-23T17:45:12.560Z,4.60
2019-02-23T17:47:41.039Z,4.60
2019-02-23T17:50:09.468Z,4.70
2019-02-23T17:52:37.555Z,4.70
2019-02-23T17:55:05.613Z,4.70
2019-02-23T17:57:33.731Z,4.80
2019-02-23T18:00:02.221Z,4.80
2019-02-23T18:02:30.163Z,3.80
2019-02-23T18:04:58.452Z,4.70
2019-02-23T18:07:26.301Z,4.80
2019-02-23T18:09:54.098Z,4.80
2019-02-23T18:12:22.657Z,4.70
2019-02-23T18:14:50.830Z,4.70
2019-02-23T18:17:18.956Z,4.80
2019-02-23T18:19:48.726Z,4.80
2019-02-23T18:22:16.523Z,4.80
2019-02-23T18:24:44.351Z,4.80
2019-02-23T18:27:14.266Z,4.90
2019-02-23T18:29:44.267Z,4.90
2019-02-23T18:32:12.121Z,5.00
2019-02-23T18:34:40.847Z,4.90
2019-02-23T18:37:09.167Z,4.80
2019-02-23T18:39:37.075Z,4.90
2019-02-23T18:42:05.005Z,4.90
2019-02-23T18:44:33.396Z,4.80
2019-02-23T18:47:02.449Z,4.80
2019-02-23T18:49:31.371Z,4.80
2019-02-23T18:51:59.363Z,4.80
2019-02-23T18:54:27.412Z,4.80
2019-02-23T18:56:55.281Z,4.80
2019-02-23T18:59:23.178Z,4.90
2019-02-23T19:01:51.116Z,4.80
2019-02-23T19:04:19.388Z,4.80
2019-02-23T19:06:47.765Z,4.80
2019-02-23T19:09:15.687Z,4.80
2019-02-23T19:11:43.873Z,4.80
2019-02-23T19:14:11.787Z,4.70
2019-02-23T19:16:39.657Z,4.80
2019-02-23T19:19:08.824Z,4.80
2019-02-23T19:21:37.047Z,4.80
2019-02-23T19:24:05.537Z,4.80
2019-02-23T19:26:38.128Z,4.90
2019-02-23T19:29:03.253Z,4.90
2019-02-23T19:31:31.533Z,4.90
2019-02-23T19:34:00.014Z,4.90
2019-02-23T19:36:28.489Z,4.90
2019-02-23T19:38:56.406Z,4.90
2019-02-23T19:41:24.312Z,5.00
2019-02-23T19:43:52.603Z,5.00
2019-02-23T19:46:20.835Z,5.00
2019-02-23T19:48:48.765Z,4.90
2019-02-23T19:51:17.103Z,4.90
2019-02-23T19:53:45.212Z,5.00
2019-02-23T19:56:13.560Z,5.00
2019-02-23T19:58:41.732Z,5.10
2019-02-23T20:01:09.682Z,5.10
2019-02-23T20:03:37.853Z,5.10
2019-02-23T20:06:05.879Z,5.10
2019-02-23T20:08:33.811Z,5.20
2019-02-23T20:11:02.695Z,5.20
2019-02-23T20:13:30.891Z,5.20
2019-02-23T20:15:58.812Z,5.20
2019-02-23T20:18:26.901Z,5.10
2019-02-23T20:20:55.384Z,5.10
2019-02-23T20:23:23.616Z,5.10
2019-02-23T20:25:51.824Z,5.10
2019-02-23T20:28:20.051Z,5.20
2019-02-23T20:30:49.069Z,5.20
2019-02-23T20:33:17.068Z,5.10
2019-02-23T20:35:44.930Z,5.00
2019-02-23T20:38:12.883Z,5.00
2019-02-23T20:40:41.525Z,5.00
2019-02-23T20:43:09.330Z,5.00
2019-02-23T20:45:37.165Z,5.00
2019-02-23T20:48:05.075Z,5.00
2019-02-23T20:50:33.452Z,5.00
2019-02-23T20:53:01.364Z,5.00
2019-02-23T20:55:29.205Z,5.00
2019-02-23T20:57:57.410Z,4.90
2019-02-23T21:00:26.752Z,4.90
2019-02-23T21:02:55.226Z,5.00
2019-02-23T21:05:23.172Z,4.90
2019-02-23T21:07:50.993Z,4.90
2019-02-23T21:10:22.469Z,4.90
2019-02-23T21:12:50.463Z,4.80
2019-02-23T21:15:18.851Z,4.80
2019-02-23T21:17:47.197Z,4.90
2019-02-23T21:20:15.049Z,4.90
2019-02-23T21:22:43.283Z,4.90
2019-02-23T21:25:11.114Z,4.80
2019-02-23T21:27:39.261Z,4.80
2019-02-23T21:30:07.138Z,4.80
2019-02-23T21:32:35.649Z,4.80
2019-02-23T21:35:03.670Z,4.80
2019-02-23T21:37:31.607Z,4.80
2019-02-23T21:39:59.857Z,4.80
2019-02-23T21:42:27.815Z,4.80
2019-02-23T21:44:55.682Z,4.80
2019-02-23T21:47:23.545Z,4.70
2019-02-23T21:49:51.702Z,4.80
2019-02-23T21:52:19.846Z,4.90
2019-02-23T21:54:47.805Z,4.90
2019-02-23T21:57:21.946Z,4.90
2019-02-23T21:59:45.742Z,4.90
2019-02-23T22:02:13.713Z,4.90
2019-02-23T22:04:42.384Z,4.90
2019-02-23T22:07:10.260Z,4.90
2019-02-23T22:09:38.073Z,4.80
2019-02-23T22:12:05.940Z,4.80
2019-02-23T22:14:33.740Z,4.80
2019-02-23T22:17:01.587Z,4.80
2019-02-23T22:19:29.367Z,4.90
2019-02-23T22:21:57.238Z,4.80
2019-02-23T22:24:25.437Z,4.80
2019-02-23T22:26:53.653Z,4.80
2019-02-23T22:29:21.459Z,4.90
2019-02-23T22:31:49.327Z,4.90
2019-02-23T22:34:17.697Z,4.90
2019-02-23T22:36:46.174Z,4.90
2019-02-23T22:39:14.755Z,4.90
2019-02-23T22:41:49.461Z,4.80
2019-02-23T22:44:12.561Z,4.90
2019-02-23T22:46:40.345Z,4.90
2019-02-23T22:49:08.362Z,4.90
2019-02-23T22:51:36.640Z,4.80
2019-02-23T22:54:05.016Z,4.70
2019-02-23T22:56:32.869Z,4.70
2019-02-23T22:59:00.646Z,4.80
2019-02-23T23:01:29.483Z,4.70
2019-02-23T23:03:58.520Z,4.70
2019-02-23T23:06:27.001Z,4.70
2019-02-23T23:08:54.836Z,4.70
2019-02-23T23:11:23.345Z,4.70
2019-02-23T23:13:51.565Z,4.70
2019-02-23T23:16:19.439Z,4.70
2019-02-23T23:18:47.245Z,4.80
2019-02-23T23:21:15.073Z,4.80
2019-02-23T23:23:42.977Z,4.70
2019-02-23T23:26:11.602Z,4.80
2019-02-23T23:28:40.039Z,4.80
2019-02-23T23:31:08.043Z,4.80
2019-02-23T23:33:35.915Z,4.80
2019-02-23T23:36:04.041Z,4.70
2019-02-23T23:38:32.169Z,4.70
2019-02-23T23:41:00.998Z,4.70
2019-02-23T23:43:28.867Z,4.70
2019-02-23T23:45:57.241Z,4.70
2019-02-23T23:48:25.617Z,4.60
2019-02-23T23:50:54.654Z,4.60
2019-02-23T23:53:22.470Z,4.60
2019-02-23T23:55:50.284Z,4.70
2019-02-23T23:58:18.154Z,4.80
